Airfield :
LOGIN :

Register | Disclaimer

   EN    FR    IT 

 










Legend :    VFR   Marginal VFR   IFR   Intensive IFR   Very Intensive IFR
Visi :
Ceiling :
>= 8 km
>= 3000ft
5 to 8 km
1000 to 3000 ft
1500m to 5 km
500 to 1000 ft
800 to 1500m
200 to 500 ft
< 800m
< 200 ft
Symbols :   Thunderstorms  Fog  Heavy snow  Heavy precipitations  Wind > 20 kt
SIGMETs :     Misc.  Thunderstorms  Icing  Turbulence  Mountain Waves  Volcanic Ashes







- Airport Elevation : 30 ft
- IATA code : CFN


EIDL - Donegal

CURRENT METAR :
  • 171630Z 17030G41KT 9999 BKN033 12/08 Q0995

EXPIRED METARs :
  • 171600Z 17028KT 9999 FEW023 11/08 Q0995
  • 171530Z 17027KT 9999 FEW022 11/07 Q0996
  • 171500Z 17028KT 9999 FEW025 11/07 Q0997
  • 171430Z 17028KT CAVOK 11/07 Q0997
  • 171400Z 17026KT 9999 FEW022 10/07 Q0998
  • 171330Z 17024KT CAVOK 10/07 Q0999

TAF TAF EIDL
Valid from the 17 at 15:00 until the 17 at 21:00 UTC


171400Z 1715/1721 16025G35KT 9999 SCT040
TEMPO 1715/1721 5000 -RA BKN010
TEMPO 1718/1721 16028G45KT
No reported NOTAMs for that airfield.
2 SIGMETs reported for the Shannon FIR (EISN) :
 
Severe turbulence
EISN SIGMET 02 VALID 171614/172000 EINN
EISN SHANNON UIR SEV TURB FCST W OF W00900 FL300/390 MOV NE 50KT NC=
Severe turbulence
EISN SIGMET 01 VALID 171515/171915 EINN
EISN SHANNON FIR SEV TURB FCST WI N5419 W01210 - N5434 W01000 - N5435 W00950 - N5200 W00945 - N5100 W00820 - N5100 W01325 - N5419 W01210 SFC/FL060 MOV E 5KT NC=



MET'MAP, your aeronautical weather chart ! - Copyright ORBIFLY December 2007 - Disclaimer

ORBIFLY MET'MAP TEAM :

Programming & Development : Alexandra Zaïnal
Concept & Development : Baudouin d'Aumeries
Co-Development & Prog : Marc-Olivier Méhu
Technical & hardware support : Manuel Goepfert

Contact : metmap@orbifly.com




SOURCES & CREDITS :

   NOAA